createdAt,value
2018-11-29T00:00:17.197Z,42.73
2018-11-29T00:02:45.932Z,37.50
2018-11-29T00:05:14.521Z,39.27
2018-11-29T00:07:43.232Z,37.50
2018-11-29T00:10:11.701Z,43.10
2018-11-29T00:12:40.197Z,44.27
2018-11-29T00:15:10.134Z,38.10
2018-11-29T00:17:39.152Z,34.33
2018-11-29T00:20:13.060Z,36.80
2018-11-29T00:22:41.801Z,42.27
2018-11-29T00:25:12.401Z,40.00
2018-11-29T00:27:40.908Z,39.90
2018-11-29T00:30:10.678Z,46.60
2018-11-29T00:32:39.213Z,37.87
2018-11-29T00:35:10.224Z,34.37
2018-11-29T00:37:38.711Z,35.97
2018-11-29T00:40:12.801Z,39.67
2018-11-29T00:42:41.260Z,36.73
2018-11-29T00:45:11.169Z,37.70
2018-11-29T00:47:39.756Z,39.30
2018-11-29T00:50:11.181Z,37.30
2018-11-29T00:52:40.590Z,41.13
2018-11-29T00:55:11.991Z,37.37
2018-11-29T00:57:40.579Z,40.73
2018-11-29T01:00:15.569Z,40.60
2018-11-29T01:02:44.056Z,42.93
2018-11-29T01:05:12.544Z,48.03
2018-11-29T01:07:41.000Z,42.63
2018-11-29T01:10:10.813Z,40.43
2018-11-29T01:12:39.269Z,40.70
2018-11-29T01:15:09.709Z,39.77
2018-11-29T01:17:38.436Z,38.33
2018-11-29T01:20:09.586Z,37.83
2018-11-29T01:22:38.118Z,43.37
2018-11-29T01:25:09.766Z,40.13
2018-11-29T01:27:38.245Z,42.90
2018-11-29T01:30:12.529Z,41.40
2018-11-29T01:32:41.034Z,38.13
2018-11-29T01:35:10.394Z,36.73
2018-11-29T01:37:38.870Z,37.10
2018-11-29T01:40:10.804Z,39.50
2018-11-29T01:42:39.241Z,36.93
2018-11-29T01:45:07.712Z,35.17
2018-11-29T01:47:36.177Z,34.83
2018-11-29T01:50:04.946Z,37.77
2018-11-29T01:52:33.426Z,37.47
2018-11-29T01:55:01.872Z,35.37
2018-11-29T01:57:30.565Z,34.67
2018-11-29T01:59:59.021Z,35.80
2018-11-29T02:02:27.474Z,34.07
2018-11-29T02:04:55.934Z,34.67
2018-11-29T02:07:24.342Z,31.97
2018-11-29T02:09:56.998Z,34.07
2018-11-29T02:12:25.422Z,35.80
2018-11-29T02:14:53.900Z,36.00
2018-11-29T02:17:22.593Z,34.13
2018-11-29T02:19:51.056Z,32.10
2018-11-29T02:22:19.511Z,34.30
2018-11-29T02:24:47.978Z,31.33
2018-11-29T02:27:16.401Z,33.17
2018-11-29T02:29:44.862Z,32.50
2018-11-29T02:32:13.493Z,38.37
2018-11-29T02:34:41.957Z,30.17
2018-11-29T02:37:10.621Z,33.83
2018-11-29T02:39:39.334Z,33.33
2018-11-29T02:42:07.817Z,33.60
2018-11-29T02:44:36.428Z,34.60
2018-11-29T02:47:04.944Z,36.60
2018-11-29T02:49:33.421Z,34.27
2018-11-29T02:52:02.208Z,35.47
2018-11-29T02:54:30.972Z,30.70
2018-11-29T02:56:59.481Z,40.80
2018-11-29T02:59:27.971Z,32.23
2018-11-29T03:01:56.762Z,31.53
2018-11-29T03:04:25.239Z,30.93
2018-11-29T03:06:53.705Z,29.67
2018-11-29T03:09:22.688Z,34.33
2018-11-29T03:11:51.132Z,36.70
2018-11-29T03:14:19.625Z,35.37
2018-11-29T03:16:48.085Z,31.93
2018-11-29T03:19:16.544Z,36.93
2018-11-29T03:21:44.973Z,32.70
2018-11-29T03:24:13.420Z,33.57
2018-11-29T03:26:41.841Z,38.20
2018-11-29T03:29:10.300Z,35.13
2018-11-29T03:31:38.770Z,29.97
2018-11-29T03:34:07.737Z,35.10
2018-11-29T03:36:36.201Z,33.50
2018-11-29T03:39:05.946Z,37.53
2018-11-29T03:41:34.785Z,30.87
2018-11-29T03:44:03.314Z,30.67
2018-11-29T03:46:31.752Z,40.03
2018-11-29T03:49:00.219Z,31.33
2018-11-29T03:51:28.671Z,25.70
2018-11-29T03:53:57.145Z,33.80
2018-11-29T03:56:25.874Z,29.10
2018-11-29T03:58:54.329Z,34.90
2018-11-29T04:01:22.770Z,34.57
2018-11-29T04:03:51.346Z,34.57
2018-11-29T04:06:19.852Z,41.47
2018-11-29T04:08:48.363Z,30.30
2018-11-29T04:11:16.825Z,32.90
2018-11-29T04:13:45.301Z,33.90
2018-11-29T04:16:13.820Z,34.17
2018-11-29T04:18:42.299Z,28.87
2018-11-29T04:21:10.782Z,33.40
2018-11-29T04:23:39.532Z,36.00
2018-11-29T04:26:08.101Z,37.63
2018-11-29T04:28:36.859Z,34.20
2018-11-29T04:31:05.660Z,33.90
2018-11-29T04:33:34.161Z,28.53
2018-11-29T04:36:02.636Z,33.30
2018-11-29T04:38:31.100Z,35.83
2018-11-29T04:40:59.617Z,29.77
2018-11-29T04:43:28.405Z,29.37
2018-11-29T04:46:08.178Z,34.47
2018-11-29T04:48:37.217Z,37.13
2018-11-29T04:51:05.731Z,31.40
2018-11-29T04:53:34.440Z,35.60
2018-11-29T04:56:02.941Z,32.87
2018-11-29T04:58:31.424Z,33.23
2018-11-29T05:00:59.931Z,30.10
2018-11-29T05:03:28.691Z,34.60
2018-11-29T05:05:57.227Z,31.53
2018-11-29T05:08:25.691Z,32.03
2018-11-29T05:10:54.182Z,33.83
2018-11-29T05:13:22.916Z,30.83
2018-11-29T05:15:51.729Z,34.60
2018-11-29T05:18:20.193Z,31.93
2018-11-29T05:20:48.940Z,32.33
2018-11-29T05:23:17.405Z,35.47
2018-11-29T05:25:45.890Z,33.60
2018-11-29T05:28:14.701Z,35.07
2018-11-29T05:30:43.201Z,35.57
2018-11-29T05:33:11.920Z,33.23
2018-11-29T05:35:40.402Z,31.00
2018-11-29T05:38:08.874Z,32.30
2018-11-29T05:40:37.397Z,34.20
2018-11-29T05:43:06.409Z,35.60
2018-11-29T05:45:35.440Z,38.13
2018-11-29T05:48:03.947Z,35.77
2018-11-29T05:50:32.401Z,39.30
2018-11-29T05:53:00.890Z,38.20
2018-11-29T05:55:29.707Z,36.47
2018-11-29T05:57:58.217Z,39.70
2018-11-29T06:00:27.076Z,38.17
2018-11-29T06:02:55.568Z,33.70
2018-11-29T06:05:24.056Z,35.90
2018-11-29T06:07:52.844Z,34.77
2018-11-29T06:10:21.337Z,36.60
2018-11-29T06:12:50.575Z,38.33
2018-11-29T06:15:19.081Z,39.43
2018-11-29T06:17:47.600Z,36.10
2018-11-29T06:20:19.717Z,35.90
2018-11-29T06:22:48.543Z,39.10
2018-11-29T06:25:17.059Z,37.43
2018-11-29T06:27:45.566Z,36.80
2018-11-29T06:30:17.978Z,38.97
2018-11-29T06:32:47.174Z,37.17
2018-11-29T06:35:15.917Z,37.67
2018-11-29T06:37:44.433Z,33.13
2018-11-29T06:40:14.709Z,38.70
2018-11-29T06:42:43.367Z,36.57
2018-11-29T06:45:14.792Z,39.03
2018-11-29T06:47:43.534Z,33.33
2018-11-29T06:50:14.034Z,38.60
2018-11-29T06:52:43.844Z,42.97
2018-11-29T06:55:14.781Z,38.63
2018-11-29T06:57:43.589Z,39.83
2018-11-29T07:00:19.308Z,37.83
2018-11-29T07:02:48.700Z,34.67
2018-11-29T07:05:17.226Z,32.20
2018-11-29T07:07:45.849Z,38.80
2018-11-29T07:10:14.746Z,34.60
2018-11-29T07:12:43.306Z,37.50
2018-11-29T07:15:12.908Z,38.70
2018-11-29T07:17:42.785Z,37.10
2018-11-29T07:20:15.654Z,40.20
2018-11-29T07:22:44.317Z,34.37
2018-11-29T07:25:13.108Z,36.97
2018-11-29T07:27:42.024Z,34.80
2018-11-29T07:30:15.944Z,38.93
2018-11-29T07:32:44.549Z,39.90
2018-11-29T07:35:15.113Z,37.73
2018-11-29T07:37:44.668Z,34.17
2018-11-29T07:40:16.479Z,35.47
2018-11-29T07:42:57.662Z,39.50
2018-11-29T07:45:26.616Z,35.30
2018-11-29T07:47:55.114Z,40.97
2018-11-29T07:50:30.748Z,36.90
2018-11-29T07:52:59.536Z,40.47
2018-11-29T07:55:28.133Z,36.80
2018-11-29T07:57:56.656Z,39.43
2018-11-29T08:00:25.303Z,39.57
2018-11-29T08:02:53.764Z,34.60
2018-11-29T08:05:22.310Z,39.83
2018-11-29T08:07:51.143Z,37.07
2018-11-29T08:10:20.997Z,38.73
2018-11-29T08:12:49.655Z,38.40
2018-11-29T08:15:19.653Z,37.30
2018-11-29T08:17:48.241Z,37.40
2018-11-29T08:20:18.873Z,33.13
2018-11-29T08:22:47.721Z,38.90
2018-11-29T08:25:16.218Z,36.47
2018-11-29T08:27:45.160Z,39.10
2018-11-29T08:30:15.172Z,38.43
2018-11-29T08:32:43.724Z,34.47
2018-11-29T08:35:14.517Z,35.30
2018-11-29T08:37:44.589Z,39.20
2018-11-29T08:40:17.341Z,32.00
2018-11-29T08:42:45.973Z,40.97
2018-11-29T08:45:14.576Z,35.37
2018-11-29T08:47:49.720Z,36.30
2018-11-29T08:50:18.507Z,36.23
2018-11-29T08:52:47.593Z,34.53
2018-11-29T08:55:17.976Z,35.83
2018-11-29T08:57:47.423Z,40.10
2018-11-29T09:00:17.813Z,34.43
2018-11-29T09:02:46.381Z,32.70
2018-11-29T09:05:15.340Z,39.60
2018-11-29T09:07:44.883Z,34.33
2018-11-29T09:10:16.666Z,36.07
2018-11-29T09:12:45.156Z,34.87
2018-11-29T09:15:15.113Z,36.37
2018-11-29T09:17:43.971Z,53.83
2018-11-29T09:20:13.632Z,38.70
2018-11-29T09:22:42.532Z,33.10
2018-11-29T09:25:12.327Z,34.40
2018-11-29T09:27:40.797Z,40.30
2018-11-29T09:30:15.993Z,35.00
2018-11-29T09:32:45.405Z,37.40
2018-11-29T09:35:13.985Z,41.63
2018-11-29T09:37:42.499Z,39.17
2018-11-29T09:40:17.222Z,36.77
2018-11-29T09:42:45.885Z,43.00
2018-11-29T09:45:21.339Z,45.97
2018-11-29T09:47:53.304Z,37.53
2018-11-29T09:50:22.011Z,34.80
2018-11-29T09:52:50.551Z,38.67
2018-11-29T09:55:19.639Z,37.60
2018-11-29T09:57:49.841Z,71.43
2018-11-29T10:00:27.210Z,45.30
2018-11-29T10:02:54.748Z,35.00
2018-11-29T10:05:23.420Z,36.97
2018-11-29T10:07:52.048Z,31.00
2018-11-29T10:10:20.553Z,42.40
2018-11-29T10:12:49.089Z,33.67
2018-11-29T10:15:17.856Z,33.10
2018-11-29T10:17:53.627Z,34.00
2018-11-29T10:20:22.107Z,34.30
2018-11-29T10:22:52.810Z,36.83
2018-11-29T10:25:24.998Z,36.67
2018-11-29T10:27:55.402Z,31.77
2018-11-29T10:30:27.426Z,34.47
2018-11-29T10:32:56.188Z,33.37
2018-11-29T10:35:25.646Z,37.93
2018-11-29T10:37:53.305Z,32.40
2018-11-29T10:40:21.898Z,33.63
2018-11-29T10:42:50.839Z,31.77
2018-11-29T10:45:20.650Z,30.80
2018-11-29T10:47:52.383Z,32.07
2018-11-29T10:50:20.155Z,33.50
2018-11-29T10:52:48.932Z,30.73
2018-11-29T10:55:19.577Z,39.70
2018-11-29T10:57:48.194Z,44.00
2018-11-29T11:00:27.265Z,32.60
2018-11-29T11:03:03.413Z,33.20
2018-11-29T11:05:32.225Z,34.57
2018-11-29T11:08:07.805Z,31.00
2018-11-29T11:10:29.661Z,34.20
2018-11-29T11:12:58.719Z,33.47
2018-11-29T11:15:27.324Z,39.00
2018-11-29T11:17:55.809Z,34.07
2018-11-29T11:20:24.625Z,30.13
2018-11-29T11:22:53.461Z,29.83
2018-11-29T11:25:22.352Z,28.53
2018-11-29T11:27:50.865Z,33.73
2018-11-29T11:30:20.512Z,34.40
2018-11-29T11:32:50.277Z,51.10
2018-11-29T11:35:19.295Z,29.67
2018-11-29T11:37:48.097Z,53.33
2018-11-29T11:40:17.297Z,33.57
2018-11-29T11:42:46.841Z,35.57
2018-11-29T11:45:17.880Z,28.37
2018-11-29T11:47:46.564Z,26.47
2018-11-29T11:50:19.784Z,32.27
2018-11-29T11:52:48.522Z,32.07
2018-11-29T11:55:19.256Z,32.73
2018-11-29T11:57:47.695Z,35.00
2018-11-29T12:00:20.224Z,29.70
2018-11-29T12:02:50.603Z,29.43
2018-11-29T12:05:19.439Z,32.23
2018-11-29T12:07:48.184Z,26.50
2018-11-29T12:10:17.829Z,33.10
2018-11-29T12:12:46.807Z,32.07
2018-11-29T12:15:15.744Z,35.37
2018-11-29T12:17:45.781Z,32.57
2018-11-29T12:20:17.986Z,31.77
2018-11-29T12:22:46.910Z,29.73
2018-11-29T12:25:16.489Z,28.63
2018-11-29T12:27:45.287Z,32.13
2018-11-29T12:30:17.552Z,73.57
2018-11-29T12:32:46.529Z,43.13
2018-11-29T12:35:15.462Z,38.37
2018-11-29T12:37:44.077Z,31.83
2018-11-29T12:40:13.714Z,32.93
2018-11-29T12:42:42.266Z,27.83
2018-11-29T12:45:12.661Z,31.30
2018-11-29T12:47:41.274Z,25.77
2018-11-29T12:50:12.782Z,32.43
2018-11-29T12:52:41.413Z,30.97
2018-11-29T12:55:10.882Z,27.20
2018-11-29T12:57:39.558Z,28.83
2018-11-29T13:00:18.852Z,27.13
2018-11-29T13:02:53.627Z,29.67
2018-11-29T13:05:22.158Z,36.27
2018-11-29T13:07:51.002Z,28.60
2018-11-29T13:10:21.404Z,33.23
2018-11-29T13:12:50.213Z,33.37
2018-11-29T13:15:28.126Z,42.80
2018-11-29T13:17:57.497Z,32.90
2018-11-29T13:20:26.283Z,29.73
2018-11-29T13:22:54.811Z,35.03
2018-11-29T13:25:24.842Z,30.30
2018-11-29T13:27:53.595Z,25.43
2018-11-29T13:30:22.749Z,27.23
2018-11-29T13:32:52.534Z,27.53
2018-11-29T13:35:27.320Z,28.40
2018-11-29T13:37:58.080Z,29.57
2018-11-29T13:40:27.509Z,28.80
2018-11-29T13:42:56.066Z,27.60
2018-11-29T13:45:24.657Z,28.80
2018-11-29T13:47:53.167Z,26.60
2018-11-29T13:50:21.687Z,31.17
2018-11-29T13:52:50.472Z,26.70
2018-11-29T13:55:19.315Z,24.90
2018-11-29T13:57:50.374Z,27.33
2018-11-29T14:00:20.232Z,29.93
2018-11-29T14:02:51.188Z,25.00
2018-11-29T14:05:19.733Z,29.17
2018-11-29T14:07:48.382Z,28.10
2018-11-29T14:10:21.170Z,26.43
2018-11-29T14:12:51.865Z,29.03
2018-11-29T14:15:27.876Z,31.13
2018-11-29T14:17:56.559Z,28.93
2018-11-29T14:20:25.301Z,24.30
2018-11-29T14:22:54.114Z,28.80
2018-11-29T14:25:22.677Z,25.20
2018-11-29T14:27:53.073Z,26.17
2018-11-29T14:30:26.382Z,26.03
2018-11-29T14:32:56.112Z,25.57
2018-11-29T14:35:24.935Z,31.13
2018-11-29T14:37:53.725Z,25.00
2018-11-29T14:40:25.787Z,26.30
2018-11-29T14:42:54.431Z,29.40
2018-11-29T14:45:24.221Z,24.20
2018-11-29T14:47:52.731Z,26.40
2018-11-29T14:50:30.108Z,32.00
2018-11-29T14:52:58.619Z,28.73
2018-11-29T14:55:27.232Z,25.80
2018-11-29T14:57:55.797Z,28.67
2018-11-29T15:00:24.615Z,27.70
2018-11-29T15:02:54.778Z,29.90
2018-11-29T15:05:29.628Z,25.57
2018-11-29T15:07:58.622Z,25.13
2018-11-29T15:10:27.358Z,26.30
2018-11-29T15:12:55.910Z,23.27
2018-11-29T15:15:25.434Z,25.07
2018-11-29T15:17:54.706Z,33.60
2018-11-29T15:20:28.057Z,28.33
2018-11-29T15:22:56.600Z,91.07
2018-11-29T15:25:25.398Z,55.30
2018-11-29T15:27:54.138Z,25.10
2018-11-29T15:30:23.662Z,26.30
2018-11-29T15:32:52.473Z,25.40
2018-11-29T15:35:21.110Z,32.37
2018-11-29T15:37:49.898Z,27.43
2018-11-29T15:40:18.950Z,28.83
2018-11-29T15:42:47.625Z,28.53
2018-11-29T15:45:21.353Z,29.70
2018-11-29T15:47:50.282Z,31.73
2018-11-29T15:50:19.115Z,29.23
2018-11-29T15:52:47.695Z,27.90
2018-11-29T15:55:24.229Z,29.10
2018-11-29T15:57:54.034Z,29.67
2018-11-29T16:00:25.151Z,24.57
2018-11-29T16:02:54.592Z,25.77
2018-11-29T16:05:23.375Z,25.60
2018-11-29T16:07:51.950Z,27.03
2018-11-29T16:10:22.124Z,28.77
2018-11-29T16:12:51.199Z,26.30
2018-11-29T16:15:21.025Z,27.37
2018-11-29T16:17:51.255Z,30.03
2018-11-29T16:20:30.716Z,24.47
2018-11-29T16:22:59.276Z,22.40
2018-11-29T16:25:28.286Z,25.83
2018-11-29T16:27:56.829Z,26.13
2018-11-29T16:30:35.322Z,26.03
2018-11-29T16:33:32.557Z,24.50
2018-11-29T16:36:01.449Z,22.33
2018-11-29T16:38:30.481Z,22.23
2018-11-29T16:40:59.021Z,24.63
2018-11-29T16:43:30.075Z,19.90
2018-11-29T16:45:58.896Z,17.83
2018-11-29T16:48:27.449Z,18.70
2018-11-29T16:50:55.945Z,20.17
2018-11-29T16:53:24.703Z,19.20
2018-11-29T16:55:53.333Z,18.87
2018-11-29T16:58:23.913Z,18.90
2018-11-29T17:00:52.539Z,16.90
2018-11-29T17:03:21.141Z,16.27
2018-11-29T17:05:49.699Z,17.80
2018-11-29T17:08:18.197Z,16.50
2018-11-29T17:10:46.689Z,22.40
2018-11-29T17:13:16.882Z,14.50
2018-11-29T17:15:45.622Z,16.00
2018-11-29T17:18:14.485Z,17.87
2018-11-29T17:20:43.052Z,13.90
2018-11-29T17:23:12.394Z,18.70
2018-11-29T17:25:40.872Z,18.10
2018-11-29T17:28:09.666Z,18.90
2018-11-29T17:30:38.830Z,21.23
2018-11-29T17:33:08.693Z,19.63
2018-11-29T17:35:37.499Z,19.37
2018-11-29T17:38:06.757Z,20.57
2018-11-29T17:40:36.146Z,25.90
2018-11-29T17:43:04.889Z,22.03
2018-11-29T17:45:33.674Z,19.10
2018-11-29T17:48:04.336Z,19.37
2018-11-29T17:50:34.666Z,20.10
2018-11-29T17:53:03.212Z,19.20
2018-11-29T17:55:31.696Z,19.83
2018-11-29T17:58:00.444Z,22.90
2018-11-29T18:00:31.520Z,23.07
2018-11-29T18:03:00.037Z,37.17
2018-11-29T18:05:28.817Z,28.63
2018-11-29T18:07:57.318Z,29.13
2018-11-29T18:10:27.009Z,21.10
2018-11-29T18:13:04.240Z,28.13
2018-11-29T18:15:34.767Z,23.17
2018-11-29T18:18:03.382Z,22.30
2018-11-29T18:20:32.822Z,28.70
2018-11-29T18:23:01.377Z,24.83
2018-11-29T18:25:30.109Z,23.30
2018-11-29T18:27:58.604Z,27.77
2018-11-29T18:30:27.348Z,25.63
2018-11-29T18:32:56.093Z,30.53
2018-11-29T18:35:24.926Z,23.27
2018-11-29T18:37:53.475Z,24.30
2018-11-29T18:40:22.688Z,24.93
2018-11-29T18:42:54.849Z,23.37
2018-11-29T18:45:24.696Z,24.97
2018-11-29T18:47:54.134Z,24.83
2018-11-29T18:50:24.147Z,22.13
2018-11-29T18:52:53.174Z,21.87
2018-11-29T18:55:22.934Z,25.40
2018-11-29T18:57:51.747Z,24.30
2018-11-29T19:00:30.348Z,20.00
2018-11-29T19:02:58.908Z,18.53
2018-11-29T19:05:27.802Z,16.90
2018-11-29T19:07:56.357Z,24.90
2018-11-29T19:10:24.921Z,22.63
2018-11-29T19:12:57.889Z,23.70
2018-11-29T19:15:26.689Z,21.27
2018-11-29T19:17:56.063Z,20.77
2018-11-29T19:20:24.869Z,19.70
2018-11-29T19:22:54.791Z,20.17
2018-11-29T19:25:23.326Z,17.50
2018-11-29T19:27:51.888Z,26.40
2018-11-29T19:30:26.426Z,20.77
2018-11-29T19:33:02.997Z,20.33
2018-11-29T19:35:31.722Z,15.40
2018-11-29T19:38:00.304Z,20.47
2018-11-29T19:40:28.900Z,17.50
2018-11-29T19:42:57.485Z,16.60
2018-11-29T19:45:26.010Z,18.73
2018-11-29T19:47:54.587Z,18.57
2018-11-29T19:50:23.432Z,14.47
2018-11-29T19:52:53.609Z,16.40
2018-11-29T19:55:27.514Z,18.50
2018-11-29T19:57:56.108Z,19.37
2018-11-29T20:00:24.903Z,15.70
2018-11-29T20:02:55.042Z,15.60
2018-11-29T20:05:23.861Z,17.43
2018-11-29T20:07:52.362Z,22.20
2018-11-29T20:10:20.970Z,22.40
2018-11-29T20:12:57.461Z,24.30
2018-11-29T20:15:25.967Z,23.77
2018-11-29T20:17:54.910Z,28.97
2018-11-29T20:20:23.454Z,21.07
2018-11-29T20:22:52.020Z,23.13
2018-11-29T20:25:21.998Z,21.97
2018-11-29T20:27:53.317Z,24.70
2018-11-29T20:30:22.926Z,20.73
2018-11-29T20:32:52.685Z,21.13
2018-11-29T20:35:21.309Z,25.87
2018-11-29T20:37:51.318Z,30.40
2018-11-29T20:40:24.633Z,25.83
2018-11-29T20:42:55.002Z,27.90
2018-11-29T20:45:29.493Z,25.60
2018-11-29T20:47:58.103Z,24.93
2018-11-29T20:50:28.196Z,28.90
2018-11-29T20:52:58.558Z,23.03
2018-11-29T20:55:28.405Z,25.37
2018-11-29T20:57:56.981Z,24.80
2018-11-29T21:00:25.612Z,24.13
2018-11-29T21:02:54.368Z,24.43
2018-11-29T21:05:24.284Z,26.37
2018-11-29T21:07:58.168Z,30.40
2018-11-29T21:10:26.893Z,31.73
2018-11-29T21:12:55.682Z,26.53
2018-11-29T21:15:24.462Z,26.07
2018-11-29T21:17:53.728Z,27.53
2018-11-29T21:20:22.457Z,22.77
2018-11-29T21:22:51.669Z,23.27
2018-11-29T21:25:22.995Z,23.53
2018-11-29T21:27:51.588Z,23.03
2018-11-29T21:30:20.098Z,22.13
2018-11-29T21:32:49.402Z,16.60
2018-11-29T21:35:20.780Z,20.00
2018-11-29T21:37:49.841Z,24.30
2018-11-29T21:40:20.940Z,18.77
2018-11-29T21:42:49.480Z,24.40
2018-11-29T21:45:18.253Z,26.10
2018-11-29T21:47:46.769Z,42.10
2018-11-29T21:50:15.310Z,38.07
2018-11-29T21:52:43.825Z,35.73
2018-11-29T21:55:12.767Z,24.50
2018-11-29T21:57:41.632Z,22.43
2018-11-29T22:00:20.765Z,26.43
2018-11-29T22:02:53.989Z,21.00
2018-11-29T22:05:22.529Z,21.17
2018-11-29T22:07:51.265Z,23.03
2018-11-29T22:10:20.066Z,27.43
2018-11-29T22:12:48.852Z,21.87
2018-11-29T22:15:17.393Z,20.90
2018-11-29T22:18:22.158Z,25.10
2018-11-29T22:21:01.269Z,21.83
2018-11-29T22:23:30.227Z,26.73
2018-11-29T22:25:59.797Z,22.40
2018-11-29T22:28:28.765Z,24.60
2018-11-29T22:30:57.593Z,21.37
2018-11-29T22:33:26.309Z,19.90
2018-11-29T22:35:54.912Z,18.03
2018-11-29T22:38:23.432Z,18.60
2018-11-29T22:40:52.166Z,18.80
2018-11-29T22:43:20.553Z,20.50
2018-11-29T22:45:49.140Z,19.93
2018-11-29T22:48:17.942Z,17.40
2018-11-29T22:50:46.758Z,16.97
2018-11-29T22:53:15.334Z,20.17
2018-11-29T22:55:44.357Z,16.67
2018-11-29T22:58:13.165Z,17.70
2018-11-29T23:00:47.037Z,17.80
2018-11-29T23:03:15.861Z,15.63
2018-11-29T23:05:44.817Z,17.40
2018-11-29T23:08:13.843Z,16.57
2018-11-29T23:10:42.722Z,15.13
2018-11-29T23:13:11.347Z,12.70
2018-11-29T23:15:40.570Z,15.57
2018-11-29T23:18:09.105Z,15.97
2018-11-29T23:20:37.736Z,19.20
2018-11-29T23:23:06.476Z,22.63
2018-11-29T23:25:35.748Z,16.73
2018-11-29T23:28:05.525Z,17.17
2018-11-29T23:30:34.134Z,15.57
2018-11-29T23:33:02.666Z,18.73
2018-11-29T23:35:31.287Z,19.13
2018-11-29T23:38:00.066Z,16.07
2018-11-29T23:40:28.795Z,19.63
2018-11-29T23:42:57.369Z,22.80
2018-11-29T23:45:25.960Z,15.47
2018-11-29T23:47:54.996Z,16.60
2018-11-29T23:50:23.490Z,16.00
2018-11-29T23:52:52.023Z,13.20
2018-11-29T23:55:22.056Z,17.70
2018-11-29T23:57:50.611Z,13.10
